createdAt,value
2022-10-31T00:02:06.580Z,100440.37
2022-10-31T00:04:52.578Z,100446.22
2022-10-31T00:07:39.627Z,100453.81
2022-10-31T00:10:26.357Z,100458.78
2022-10-31T00:13:12.361Z,100461.16
2022-10-31T00:15:58.807Z,100454.31
2022-10-31T00:18:44.843Z,100454.56
2022-10-31T00:21:31.653Z,100454.63
2022-10-31T00:24:18.164Z,100445.84
2022-10-31T00:27:04.731Z,100439.09
2022-10-31T00:29:50.369Z,100435.38
2022-10-31T00:32:36.827Z,100438.31
2022-10-31T00:35:22.881Z,100433.81
2022-10-31T00:38:09.317Z,100427.00
2022-10-31T00:40:55.764Z,100440.56
2022-10-31T00:43:43.327Z,100431.19
2022-10-31T00:46:29.125Z,100435.06
2022-10-31T00:49:15.866Z,100428.75
2022-10-31T00:52:02.631Z,100426.38
2022-10-31T00:54:50.094Z,100416.78
2022-10-31T00:57:36.215Z,100412.28
2022-10-31T01:00:24.041Z,100421.56
2022-10-31T01:03:10.108Z,100429.47
2022-10-31T01:06:06.271Z,100420.13
2022-10-31T01:08:53.598Z,100427.66
2022-10-31T01:11:40.196Z,100420.72
2022-10-31T01:14:26.686Z,100419.09
2022-10-31T01:17:16.416Z,100425.66
2022-10-31T01:20:05.718Z,100425.59
2022-10-31T01:22:52.159Z,100414.62
2022-10-31T01:25:38.236Z,100417.34
2022-10-31T01:31:10.467Z,100416.84
2022-10-31T01:33:56.804Z,100415.19
2022-10-31T01:36:42.703Z,100414.22
2022-10-31T01:39:32.084Z,100411.47
2022-10-31T01:42:23.005Z,100410.41
2022-10-31T01:45:10.816Z,100409.44
2022-10-31T01:47:57.018Z,100406.03
2022-10-31T01:50:43.627Z,100407.75
2022-10-31T01:53:29.831Z,100409.66
2022-10-31T01:56:16.141Z,100413.78
2022-10-31T01:59:02.457Z,100403.72
2022-10-31T02:01:49.063Z,100405.66
2022-10-31T02:04:36.507Z,100399.37
2022-10-31T02:07:38.046Z,100401.72
2022-10-31T02:10:24.549Z,100398.28
2022-10-31T02:13:12.051Z,100404.16
2022-10-31T02:15:59.754Z,100398.19
2022-10-31T02:18:45.689Z,100393.25
2022-10-31T02:21:41.224Z,100393.37
2022-10-31T02:24:45.786Z,100393.63
2022-10-31T02:27:47.488Z,100395.12
2022-10-31T02:30:53.605Z,100392.72
2022-10-31T02:33:42.590Z,100396.78
2022-10-31T02:36:40.129Z,100404.53
2022-10-31T02:39:31.793Z,100394.22
2022-10-31T02:42:20.016Z,100396.28
2022-10-31T02:45:11.217Z,100402.81
2022-10-31T02:47:59.694Z,100405.47
2022-10-31T02:50:48.444Z,100399.84
2022-10-31T02:53:35.142Z,100408.03
2022-10-31T02:56:21.385Z,100411.62
2022-10-31T02:59:09.472Z,100409.66
2022-10-31T03:01:59.268Z,100414.28
2022-10-31T03:04:50.985Z,100407.09
2022-10-31T03:07:52.455Z,100409.91
2022-10-31T03:10:47.386Z,100403.09
2022-10-31T03:13:33.559Z,100405.16
2022-10-31T03:16:19.429Z,100407.38
2022-10-31T03:19:10.809Z,100405.09
2022-10-31T03:21:58.453Z,100416.97
2022-10-31T03:24:44.757Z,100415.66
2022-10-31T03:27:31.291Z,100420.06
2022-10-31T03:30:18.909Z,100420.88
2022-10-31T03:33:07.462Z,100412.06
2022-10-31T03:35:54.346Z,100421.28
2022-10-31T03:38:41.760Z,100421.56
2022-10-31T03:41:29.136Z,100414.91
2022-10-31T03:44:16.839Z,100427.41
2022-10-31T03:47:04.437Z,100426.28
2022-10-31T03:49:50.229Z,100422.72
2022-10-31T03:52:48.218Z,100421.28
2022-10-31T03:55:39.147Z,100420.47
2022-10-31T03:58:27.278Z,100432.81
2022-10-31T04:01:15.355Z,100426.47
2022-10-31T04:04:01.992Z,100430.31
2022-10-31T04:06:49.294Z,100432.78
2022-10-31T04:09:36.373Z,100431.00
2022-10-31T04:12:23.481Z,100430.94
2022-10-31T04:15:11.682Z,100429.44
2022-10-31T04:17:59.982Z,100435.25
2022-10-31T04:20:46.477Z,100434.69
2022-10-31T04:23:32.676Z,100438.28
2022-10-31T04:26:19.346Z,100437.75
2022-10-31T04:29:06.337Z,100446.13
2022-10-31T04:31:52.792Z,100447.72
2022-10-31T04:34:38.605Z,100445.38
2022-10-31T04:37:25.538Z,100458.56
2022-10-31T04:40:12.526Z,100456.19
2022-10-31T04:43:00.847Z,100455.78
2022-10-31T04:45:49.103Z,100467.72
2022-10-31T04:48:37.216Z,100459.69
2022-10-31T04:51:26.523Z,100459.66
2022-10-31T04:54:13.314Z,100455.56
2022-10-31T04:57:00.961Z,100451.75
2022-10-31T04:59:48.925Z,100450.84
2022-10-31T05:02:44.523Z,100457.47
2022-10-31T05:05:33.340Z,100464.56
2022-10-31T05:08:19.395Z,100465.50
2022-10-31T05:11:06.276Z,100462.75
2022-10-31T05:13:53.197Z,100463.84
2022-10-31T05:16:41.074Z,100451.03
2022-10-31T05:19:29.292Z,100459.00
2022-10-31T05:22:19.100Z,100459.00
2022-10-31T05:25:05.536Z,100447.47
2022-10-31T05:27:55.930Z,100458.53
2022-10-31T05:30:42.605Z,100466.31
2022-10-31T05:33:29.506Z,100467.47
2022-10-31T05:36:23.982Z,100453.16
2022-10-31T05:39:11.052Z,100451.56
2022-10-31T05:41:59.137Z,100442.69
2022-10-31T05:44:46.536Z,100456.25
2022-10-31T05:47:32.816Z,100478.13
2022-10-31T05:50:24.155Z,100463.94
2022-10-31T05:53:12.552Z,100472.31
2022-10-31T05:56:05.177Z,100466.41
2022-10-31T05:58:53.595Z,100478.38
2022-10-31T06:01:41.428Z,100475.06
2022-10-31T06:04:32.614Z,100479.72
2022-10-31T06:07:21.172Z,100484.53
2022-10-31T06:10:09.355Z,100473.41
2022-10-31T06:12:56.778Z,100480.91
2022-10-31T06:15:43.364Z,100477.03
2022-10-31T06:18:36.327Z,100479.53
2022-10-31T06:21:24.043Z,100494.63
2022-10-31T06:24:18.117Z,100484.78
2022-10-31T06:27:08.448Z,100493.84
2022-10-31T06:29:57.169Z,100483.88
2022-10-31T06:32:47.532Z,100472.91
2022-10-31T06:35:34.380Z,100483.75
2022-10-31T06:38:23.479Z,100484.75
2022-10-31T06:41:17.527Z,100479.53
2022-10-31T06:44:12.432Z,100479.66
2022-10-31T06:47:04.178Z,100487.19
2022-10-31T06:49:58.308Z,100489.81
2022-10-31T06:52:50.184Z,100495.22
2022-10-31T06:55:41.142Z,100508.00
2022-10-31T06:58:38.233Z,100506.38
2022-10-31T07:01:29.438Z,100502.00
2022-10-31T07:04:27.191Z,100500.09
2022-10-31T07:07:14.408Z,100507.59
2022-10-31T07:10:06.554Z,100515.75
2022-10-31T07:13:00.628Z,100515.22
2022-10-31T07:16:03.616Z,100513.59
2022-10-31T07:18:52.144Z,100515.91
2022-10-31T07:21:39.708Z,100514.16
2022-10-31T07:24:27.382Z,100523.41
2022-10-31T07:27:17.564Z,100525.81
2022-10-31T07:30:06.220Z,100535.06
2022-10-31T07:32:58.351Z,100531.09
2022-10-31T07:35:50.168Z,100533.62
2022-10-31T07:38:39.211Z,100531.25
2022-10-31T07:41:31.364Z,100537.34
2022-10-31T07:44:25.309Z,100531.56
2022-10-31T07:47:25.235Z,100529.88
2022-10-31T07:50:23.168Z,100523.25
2022-10-31T07:53:19.414Z,100514.97
2022-10-31T07:56:07.772Z,100517.06
2022-10-31T07:59:00.479Z,100517.91
2022-10-31T08:01:48.188Z,100526.50
2022-10-31T08:04:45.181Z,100527.12
2022-10-31T08:07:39.193Z,100526.56
2022-10-31T08:10:34.186Z,100535.37
2022-10-31T08:13:23.537Z,100537.72
2022-10-31T08:16:17.178Z,100529.78
2022-10-31T08:19:14.584Z,100537.63
2022-10-31T08:22:05.182Z,100538.47
2022-10-31T08:25:19.161Z,100536.91
2022-10-31T08:28:07.157Z,100536.09
2022-10-31T08:30:56.189Z,100538.47
2022-10-31T08:33:47.594Z,100544.28
2022-10-31T08:36:40.243Z,100532.16
2022-10-31T08:39:34.639Z,100540.88
2022-10-31T08:42:27.175Z,100531.13
2022-10-31T08:45:24.169Z,100531.00
2022-10-31T08:48:14.210Z,100533.50
2022-10-31T08:51:02.628Z,100531.25
2022-10-31T08:53:51.678Z,100531.06
2022-10-31T08:56:51.156Z,100543.62
2022-10-31T08:59:49.553Z,100536.84
2022-10-31T09:02:39.499Z,100536.34
2022-10-31T09:05:27.116Z,100540.62
2022-10-31T09:08:21.205Z,100544.78
2022-10-31T09:11:09.909Z,100540.28
2022-10-31T09:17:01.082Z,100547.53
2022-10-31T09:19:57.384Z,100541.09
2022-10-31T09:22:55.522Z,100537.91
2022-10-31T09:25:50.792Z,100541.78
2022-10-31T09:28:49.180Z,100548.75
2022-10-31T09:31:44.791Z,100548.31
2022-10-31T09:34:33.286Z,100546.34
2022-10-31T09:37:19.561Z,100545.47
2022-10-31T09:40:13.365Z,100552.56
2022-10-31T09:43:11.183Z,100549.47
2022-10-31T09:46:02.935Z,100541.94
2022-10-31T09:49:03.503Z,100555.44
2022-10-31T09:52:03.833Z,100550.84
2022-10-31T09:54:53.789Z,100549.91
2022-10-31T09:57:44.341Z,100552.59
2022-10-31T10:00:34.437Z,100543.03
2022-10-31T10:03:33.145Z,100544.75
2022-10-31T10:06:24.314Z,100536.38
2022-10-31T10:09:26.329Z,100540.50
2022-10-31T10:12:27.475Z,100538.47
2022-10-31T10:15:24.991Z,100540.41
2022-10-31T10:18:30.051Z,100540.00
2022-10-31T10:21:29.711Z,100545.03
2022-10-31T10:24:27.436Z,100543.84
2022-10-31T10:27:20.681Z,100530.81
2022-10-31T10:30:18.928Z,100539.66
2022-10-31T10:33:09.823Z,100532.69
2022-10-31T10:36:01.420Z,100534.03
2022-10-31T10:38:52.656Z,100530.34
2022-10-31T10:41:45.781Z,100529.59
2022-10-31T10:45:00.401Z,100524.84
2022-10-31T10:47:55.539Z,100525.97
2022-10-31T10:50:48.885Z,100522.03
2022-10-31T10:53:38.164Z,100522.09
2022-10-31T10:59:46.277Z,100532.78
2022-10-31T11:02:34.293Z,100528.09
2022-10-31T11:05:25.947Z,100526.00
2022-10-31T11:08:28.144Z,100524.59
2022-10-31T11:11:20.147Z,100522.56
2022-10-31T11:14:20.214Z,100520.41
2022-10-31T11:17:12.132Z,100523.09
2022-10-31T11:20:07.166Z,100516.69
2022-10-31T11:23:02.428Z,100509.66
2022-10-31T11:25:52.203Z,100508.09
2022-10-31T11:28:42.166Z,100507.50
2022-10-31T11:31:34.018Z,100507.84
2022-10-31T11:34:43.322Z,100511.22
2022-10-31T11:37:33.215Z,100500.97
2022-10-31T11:40:25.558Z,100500.75
2022-10-31T11:43:15.167Z,100510.88
2022-10-31T11:46:20.182Z,100502.59
2022-10-31T11:49:21.170Z,100497.41
2022-10-31T11:52:21.067Z,100498.50
2022-10-31T11:55:15.357Z,100498.94
2022-10-31T11:58:04.676Z,100505.88
2022-10-31T12:01:00.206Z,100501.56
2022-10-31T12:03:51.783Z,100508.03
2022-10-31T12:06:51.204Z,100501.78
2022-10-31T12:09:40.082Z,100503.50
2022-10-31T12:12:30.185Z,100501.78
2022-10-31T12:15:34.449Z,100500.66
2022-10-31T12:18:30.704Z,100500.22
2022-10-31T12:21:24.971Z,100505.63
2022-10-31T12:24:27.661Z,100500.50
2022-10-31T12:27:34.436Z,100502.50
2022-10-31T12:30:32.153Z,100496.28
2022-10-31T12:33:27.619Z,100490.88
2022-10-31T12:36:22.257Z,100492.62
2022-10-31T12:39:19.513Z,100495.38
2022-10-31T12:42:23.384Z,100500.63
2022-10-31T12:45:14.370Z,100492.41
2022-10-31T12:48:06.805Z,100496.53
2022-10-31T12:51:12.012Z,100490.25
2022-10-31T12:54:18.466Z,100489.22
2022-10-31T12:57:17.248Z,100491.53
2022-10-31T13:00:06.909Z,100489.00
2022-10-31T13:03:02.152Z,100491.91
2022-10-31T13:05:58.091Z,100490.03
2022-10-31T13:09:09.173Z,100487.59
2022-10-31T13:12:03.802Z,100487.16
2022-10-31T13:14:54.457Z,100484.78
2022-10-31T13:17:43.610Z,100480.75
2022-10-31T13:23:49.840Z,100480.97
2022-10-31T13:26:44.188Z,100484.06
2022-10-31T13:29:36.125Z,100483.53
2022-10-31T13:32:25.088Z,100490.75
2022-10-31T13:35:16.334Z,100481.09
2022-10-31T13:38:13.670Z,100477.69
2022-10-31T13:41:13.131Z,100475.03
2022-10-31T13:44:27.191Z,100478.28
2022-10-31T13:47:23.258Z,100476.06
2022-10-31T13:50:33.148Z,100477.47
2022-10-31T13:53:22.272Z,100476.72
2022-10-31T13:56:09.898Z,100478.41
2022-10-31T13:59:04.196Z,100473.63
2022-10-31T14:05:01.639Z,100472.06
2022-10-31T14:07:48.269Z,100470.84
2022-10-31T14:10:39.244Z,100476.78
2022-10-31T14:13:35.808Z,100472.22
2022-10-31T14:16:26.679Z,100469.88
2022-10-31T14:19:18.195Z,100464.56
2022-10-31T14:22:20.577Z,100462.69
2022-10-31T14:25:29.451Z,100461.22
2022-10-31T14:28:35.243Z,100472.00
2022-10-31T14:31:28.184Z,100470.38
2022-10-31T14:34:23.121Z,100469.72
2022-10-31T14:37:31.209Z,100465.47
2022-10-31T14:40:23.182Z,100470.25
2022-10-31T14:43:48.515Z,100475.09
2022-10-31T14:47:05.250Z,100473.91
2022-10-31T14:50:03.359Z,100476.34
2022-10-31T14:52:54.173Z,100478.41
2022-10-31T14:55:51.158Z,100475.47
2022-10-31T14:58:45.172Z,100472.31
2022-10-31T15:01:43.335Z,100471.44
2022-10-31T15:04:35.492Z,100471.19
2022-10-31T15:07:34.981Z,100465.91
2022-10-31T15:10:35.957Z,100460.72
2022-10-31T15:13:24.676Z,100462.00
2022-10-31T15:16:13.346Z,100462.09
2022-10-31T15:19:10.199Z,100472.69
2022-10-31T15:22:08.187Z,100465.25
2022-10-31T15:25:03.504Z,100461.91
2022-10-31T15:27:52.236Z,100462.69
2022-10-31T15:30:53.187Z,100471.50
2022-10-31T15:33:49.076Z,100464.63
2022-10-31T15:36:46.130Z,100465.34
2022-10-31T15:39:36.615Z,100473.81
2022-10-31T15:42:34.421Z,100468.69
2022-10-31T15:45:26.163Z,100462.78
2022-10-31T15:48:20.463Z,100475.22
2022-10-31T15:51:15.736Z,100475.62
2022-10-31T15:54:06.441Z,100477.19
2022-10-31T15:56:54.117Z,100478.75
2022-10-31T15:59:54.231Z,100479.72
2022-10-31T16:02:44.236Z,100486.19
2022-10-31T16:05:37.577Z,100485.47
2022-10-31T16:08:33.477Z,100490.03
2022-10-31T16:11:24.160Z,100480.84
2022-10-31T16:14:25.287Z,100488.53
2022-10-31T16:17:20.169Z,100481.47
2022-10-31T16:20:20.356Z,100494.06
2022-10-31T16:23:13.211Z,100492.81
2022-10-31T16:25:59.947Z,100497.97
2022-10-31T16:29:03.322Z,100499.03
2022-10-31T16:31:58.835Z,100496.12
2022-10-31T16:35:25.201Z,100503.75
2022-10-31T16:38:24.718Z,100499.22
2022-10-31T16:41:30.206Z,100505.16
2022-10-31T16:44:22.087Z,100510.84
2022-10-31T16:47:26.035Z,100506.94
2022-10-31T16:50:23.847Z,100501.75
2022-10-31T16:53:17.221Z,100512.69
2022-10-31T16:56:06.432Z,100521.19
2022-10-31T16:59:06.268Z,100517.38
2022-10-31T17:01:54.509Z,100525.41
2022-10-31T17:04:52.166Z,100524.81
2022-10-31T17:07:50.148Z,100522.34
2022-10-31T17:10:36.658Z,100518.78
2022-10-31T17:13:24.639Z,100522.16
2022-10-31T17:16:23.305Z,100519.91
2022-10-31T17:19:15.992Z,100525.72
2022-10-31T17:22:15.227Z,100522.53
2022-10-31T17:25:02.585Z,100527.75
2022-10-31T17:27:57.211Z,100527.72
2022-10-31T17:30:49.175Z,100532.59
2022-10-31T17:33:40.169Z,100530.84
2022-10-31T17:36:29.285Z,100533.38
2022-10-31T17:39:23.109Z,100534.47
2022-10-31T17:42:12.468Z,100529.19
2022-10-31T17:45:09.359Z,100533.50
2022-10-31T17:51:06.133Z,100517.16
2022-10-31T17:56:56.261Z,100521.66
2022-10-31T17:59:52.495Z,100518.19
2022-10-31T18:02:43.628Z,100528.81
2022-10-31T18:05:33.172Z,100528.37
2022-10-31T18:08:32.137Z,100521.75
2022-10-31T18:14:20.362Z,100529.22
2022-10-31T18:17:08.204Z,100524.41
2022-10-31T18:20:10.208Z,100524.28
2022-10-31T18:23:06.148Z,100530.22
2022-10-31T18:26:02.524Z,100522.06
2022-10-31T18:28:56.209Z,100529.78
2022-10-31T18:31:52.197Z,100518.19
2022-10-31T18:34:41.432Z,100524.94
2022-10-31T18:37:37.165Z,100517.16
2022-10-31T18:40:25.399Z,100522.78
2022-10-31T18:43:19.135Z,100520.84
2022-10-31T18:49:11.571Z,100519.00
2022-10-31T18:52:11.217Z,100521.47
2022-10-31T18:55:05.634Z,100525.00
2022-10-31T18:57:53.260Z,100532.53
2022-10-31T19:00:40.817Z,100523.31
2022-10-31T19:03:28.150Z,100522.28
2022-10-31T19:06:23.399Z,100525.75
2022-10-31T19:09:20.458Z,100522.16
2022-10-31T19:12:24.147Z,100519.91
2022-10-31T19:15:13.228Z,100513.28
2022-10-31T19:18:17.181Z,100532.72
2022-10-31T19:21:10.179Z,100514.81
2022-10-31T19:24:04.355Z,100519.63
2022-10-31T19:29:45.065Z,100518.19
2022-10-31T19:32:45.625Z,100517.25
2022-10-31T19:35:34.207Z,100529.50
2022-10-31T19:38:35.143Z,100520.44
2022-10-31T19:41:29.345Z,100527.38
2022-10-31T19:44:17.205Z,100528.97
2022-10-31T19:47:05.130Z,100523.75
2022-10-31T19:49:53.984Z,100517.59
2022-10-31T19:52:41.405Z,100524.09
2022-10-31T19:55:31.428Z,100519.59
2022-10-31T19:58:21.128Z,100525.81
2022-10-31T20:01:16.253Z,100527.25
2022-10-31T20:07:20.496Z,100525.94
2022-10-31T20:10:21.174Z,100531.63
2022-10-31T20:13:10.969Z,100528.06
2022-10-31T20:16:04.436Z,100536.53
2022-10-31T20:18:57.032Z,100538.56
2022-10-31T20:21:52.145Z,100539.09
2022-10-31T20:24:51.907Z,100538.31
2022-10-31T20:27:42.408Z,100543.94
2022-10-31T20:30:32.155Z,100548.25
2022-10-31T20:33:19.194Z,100541.19
2022-10-31T20:36:14.895Z,100546.53
2022-10-31T20:39:04.429Z,100546.53
2022-10-31T20:41:55.635Z,100541.81
2022-10-31T20:44:43.330Z,100551.69
2022-10-31T20:47:33.756Z,100535.53
2022-10-31T20:50:23.595Z,100536.22
2022-10-31T20:53:11.418Z,100537.56
2022-10-31T20:56:07.236Z,100549.37
2022-10-31T20:59:12.640Z,100545.50
2022-10-31T21:02:06.300Z,100544.78
2022-10-31T21:04:53.558Z,100543.47
2022-10-31T21:07:41.673Z,100543.66
2022-10-31T21:10:28.888Z,100543.84
2022-10-31T21:13:18.464Z,100542.03
2022-10-31T21:16:13.377Z,100537.56
2022-10-31T21:19:14.754Z,100533.06
2022-10-31T21:22:09.212Z,100534.59
2022-10-31T21:24:56.573Z,100526.34
2022-10-31T21:27:44.136Z,100536.19
2022-10-31T21:30:33.035Z,100529.81
2022-10-31T21:33:19.158Z,100523.00
2022-10-31T21:36:06.211Z,100531.94
2022-10-31T21:38:52.917Z,100528.78
2022-10-31T21:44:34.147Z,100513.81
2022-10-31T21:47:20.958Z,100521.06
2022-10-31T21:50:09.271Z,100517.69
2022-10-31T21:52:56.886Z,100512.16
2022-10-31T21:55:45.645Z,100515.97
2022-10-31T21:58:34.826Z,100506.78
2022-10-31T22:01:25.990Z,100503.88
2022-10-31T22:04:19.247Z,100504.84
2022-10-31T22:07:06.576Z,100506.72
2022-10-31T22:09:54.922Z,100504.25
2022-10-31T22:12:41.063Z,100511.81
2022-10-31T22:15:27.501Z,100516.94
2022-10-31T22:18:14.540Z,100513.38
2022-10-31T22:21:09.097Z,100511.75
2022-10-31T22:23:56.570Z,100510.59
2022-10-31T22:26:43.872Z,100505.09
2022-10-31T22:29:30.616Z,100510.06
2022-10-31T22:32:17.227Z,100510.03
2022-10-31T22:35:03.518Z,100519.44
2022-10-31T22:37:50.119Z,100512.25
2022-10-31T22:40:36.830Z,100504.72
2022-10-31T22:43:25.156Z,100495.25
2022-10-31T22:46:12.573Z,100492.81
2022-10-31T22:49:00.269Z,100490.28
2022-10-31T22:51:46.891Z,100492.72
2022-10-31T22:54:32.960Z,100490.25
2022-10-31T22:57:19.000Z,100481.22
2022-10-31T23:00:06.142Z,100490.88
2022-10-31T23:02:51.956Z,100496.66
2022-10-31T23:05:38.789Z,100493.78
2022-10-31T23:08:25.882Z,100491.31
2022-10-31T23:11:21.156Z,100501.63
2022-10-31T23:14:15.398Z,100496.88
2022-10-31T23:17:03.524Z,100494.44
2022-10-31T23:19:49.350Z,100491.06
2022-10-31T23:22:35.774Z,100498.00
2022-10-31T23:25:40.497Z,100487.19
2022-10-31T23:28:27.312Z,100486.59
2022-10-31T23:31:13.822Z,100494.47
2022-10-31T23:34:00.474Z,100483.84
2022-10-31T23:36:47.203Z,100483.75
2022-10-31T23:39:34.283Z,100475.19
2022-10-31T23:42:20.511Z,100483.72
2022-10-31T23:45:07.323Z,100472.53
2022-10-31T23:47:54.532Z,100474.78
2022-10-31T23:50:41.038Z,100477.41
2022-10-31T23:53:27.001Z,100483.81
2022-10-31T23:56:17.110Z,100478.16
2022-10-31T23:59:05.345Z,100483.84
